Timber Mountain, Nevada Weather observations

Data are for 10 minute period ending at time listed.
 Day   Time   Solar   Ave.   Ave.  Ave.  Vector  Max.   Baro.   Total    
  of    of     Rad.   Air    Rel.  Wind   Wind   Wind  Press.  Precip.   
Year   Day            Temp.  Hum.  Speed  Dir.   Gust                    
2015   (PST)  Kw/m2    F      %     mph   deg.    mph    mb.     in.     
-------------------------------------------------------------------------
 122    0:00   0.00   57.8    23    4.9   243    11.6   811.1    0.00 
 122    1:00   0.00   57.5    24    3.5   228    10.6   810.9    0.00 
 122    2:00   0.00   54.3    27    1.4    99     3.9   810.4    0.00 
 122    3:00   0.00   51.3    29    3.5   102     5.2   810.3    0.00 
 122    4:00   0.00   52.0    28    3.4   108     6.8   810.2    0.00 
 122    5:00   0.00   49.5    32    6.7   136     9.6   810.1    0.00 
 122    6:00   0.06   52.3    30    8.1   150    13.0   810.3    0.00 
 122    7:00   0.30   60.8    20    8.2   140    13.1   810.4    0.00 
 122    8:00   0.52   64.3    18    7.7   137    13.0   810.5    0.00 
 122    9:00   0.72   66.5    16    6.8   146    15.7   810.4    0.00 
 122   10:00   0.88   68.5    15    7.5   157    18.1   810.5    0.00 
 122   11:00   0.99   69.0    16    9.7   207    20.5   810.5    0.00 
 122   12:00   0.88   69.3    16    9.4   222    28.5   810.1    0.00 
 122   13:00   1.02   70.6    14   12.2   227    30.5   809.5    0.00 
 122   14:00   0.82   71.4    13   11.9   233    29.6   808.9    0.00 
 122   15:00   0.90   72.3    12   12.7   228    35.1   808.3    0.00 
 122   16:00   0.69   71.9    13   12.4   223    30.9   807.9    0.00 
 122   17:00   0.42   70.7    12    9.9   195    21.9   807.6    0.00 
 122   18:00   0.20   69.0    14    9.7   217    21.9   807.2    0.00 
 122   19:00   0.02   64.7    17    6.9   213    18.9   807.1    0.00 
 122   20:00   0.00   61.9    20    4.8   216    12.9   807.7    0.00 
 122   21:00   0.00   60.5    22    4.7   176    10.4   808.1    0.00 
 122   22:00   0.00   58.7    22    5.5   154    15.1   808.3    0.00 
 122   23:00   0.00   58.4    23    4.1   163    10.4   808.4    0.00 

Return to Timber Mountain graphs page.


Western Regional Climate Center,wrcc@dri.edu